Time;durP1;ratioP1;P1;durP2;ratioP2;P2;SDS_P1;SDS_P2;PMS_P1;PMS_P2;Temp;Humidity;BMP_temperature;BMP_pressure;BME280_temperature;BME280_humidity;BME280_pressure;Samples;Min_cycle;Max_cycle;Signal;HPM_P1;HPM_P2
2023/07/13 04:32:13;;;;;;;10.13;2.75;;;17.70;72.80;;;;;;5058465;23;20062;-75
2023/07/13 04:34:39;;;;;;;5.53;2.70;;;17.70;73.40;;;;;;4904350;29;20036;-75
2023/07/13 04:37:05;;;;;;;7.25;2.53;;;17.70;73.30;;;;;;4938706;29;21309;-75
2023/07/13 04:39:31;;;;;;;7.13;2.50;;;17.60;73.50;;;;;;4941141;29;20078;-75
2023/07/13 04:41:56;;;;;;;7.43;2.33;;;17.70;73.50;;;;;;4924161;29;20391;-75
2023/07/13 04:44:22;;;;;;;9.13;2.90;;;17.70;73.40;;;;;;4940810;29;20020;-75
2023/07/13 04:46:47;;;;;;;7.78;2.55;;;17.70;73.40;;;;;;4924346;29;20032;-75
2023/07/13 04:49:13;;;;;;;5.95;2.53;;;17.60;73.70;;;;;;4924112;29;20031;-87
2023/07/13 04:51:39;;;;;;;8.60;2.67;;;17.70;73.70;;;;;;4924089;29;20458;-84
2023/07/13 04:54:05;;;;;;;6.80;2.78;;;17.70;73.50;;;;;;4935735;29;20027;-86
2023/07/13 04:56:30;;;;;;;6.05;2.67;;;17.70;73.50;;;;;;4925237;29;20413;-87
2023/07/13 04:58:56;;;;;;;8.35;2.40;;;17.70;73.60;;;;;;4941109;29;20116;-84
2023/07/13 05:01:22;;;;;;;9.93;3.00;;;17.70;73.80;;;;;;4925291;29;20032;-87
2023/07/13 05:03:48;;;;;;;8.55;3.03;;;17.70;73.60;;;;;;4929484;29;20032;-88
2023/07/13 05:06:13;;;;;;;6.80;3.00;;;17.70;73.50;;;;;;4938887;29;20111;-85
2023/07/13 05:08:39;;;;;;;7.57;2.70;;;17.80;73.80;;;;;;4930330;29;20128;-85
2023/07/13 05:11:06;;;;;;;6.45;2.67;;;17.70;73.90;;;;;;4934659;29;20039;-87
2023/07/13 05:13:32;;;;;;;9.50;2.80;;;17.70;74.20;;;;;;4922228;29;20039;-83
2023/07/13 05:15:59;;;;;;;6.55;2.60;;;17.70;74.00;;;;;;4941397;29;20471;-84
2023/07/13 05:18:25;;;;;;;7.57;2.47;;;17.70;73.80;;;;;;4924497;29;20028;-83
2023/07/13 05:21:03;;;;;;;6.63;2.95;;;17.70;73.90;;;;;;4922028;29;20474;-84
2023/07/13 05:23:30;;;;;;;8.93;2.80;;;17.70;74.20;;;;;;4921752;29;20087;-83
2023/07/13 05:25:55;;;;;;;7.75;2.75;;;17.70;74.30;;;;;;4939659;29;20476;-83
2023/07/13 05:28:22;;;;;;;8.45;3.13;;;17.80;74.10;;;;;;4940412;29;20058;-83
2023/07/13 05:30:49;;;;;;;6.68;2.53;;;17.70;74.30;;;;;;4957550;28;20055;-84
2023/07/13 05:33:14;;;;;;;8.85;3.15;;;17.70;74.40;;;;;;4940259;29;20115;-83
2023/07/13 05:35:40;;;;;;;10.45;2.80;;;17.70;74.50;;;;;;4933134;29;20074;-83
2023/07/13 05:38:06;;;;;;;7.88;2.90;;;17.80;74.20;;;;;;4940227;29;20119;-83
2023/07/13 05:40:32;;;;;;;8.02;2.78;;;17.80;74.20;;;;;;4946545;29;20070;-83
2023/07/13 05:42:57;;;;;;;6.43;2.42;;;17.80;74.10;;;;;;4958974;29;20501;-83
2023/07/13 05:45:23;;;;;;;6.20;2.65;;;17.90;74.40;;;;;;4959325;29;20067;-83
2023/07/13 05:47:49;;;;;;;7.40;2.72;;;17.90;74.50;;;;;;4959569;29;20023;-80
2023/07/13 05:50:14;;;;;;;7.05;2.67;;;18.00;74.00;;;;;;4933806;29;20040;-81
2023/07/13 05:52:40;;;;;;;8.77;2.58;;;18.00;74.20;;;;;;4940080;29;20024;-87
2023/07/13 05:55:06;;;;;;;6.20;2.80;;;18.00;74.10;;;;;;4940005;29;20031;-82
2023/07/13 05:57:31;;;;;;;5.85;2.63;;;18.10;74.10;;;;;;4940152;29;20030;-81
2023/07/13 05:59:57;;;;;;;8.50;2.55;;;18.10;74.10;;;;;;4939677;29;20039;-82
2023/07/13 06:02:23;;;;;;;8.52;3.10;;;18.10;74.10;;;;;;4939660;29;20103;-82
2023/07/13 06:04:48;;;;;;;9.52;2.95;;;18.20;74.10;;;;;;4939139;29;20031;-82
2023/07/13 06:07:14;;;;;;;9.27;2.95;;;18.20;74.10;;;;;;4937349;29;20075;-82
2023/07/13 06:09:40;;;;;;;7.10;2.45;;;18.30;73.80;;;;;;4930070;29;20034;-82
2023/07/13 06:12:06;;;;;;;7.90;2.67;;;18.30;74.00;;;;;;4939939;29;20027;-82
2023/07/13 06:14:32;;;;;;;8.88;2.50;;;18.20;74.20;;;;;;4939669;29;20031;-82
2023/07/13 06:16:58;;;;;;;9.80;2.67;;;18.20;74.20;;;;;;4932144;29;20111;-82
2023/07/13 06:19:23;;;;;;;5.05;2.38;;;18.30;74.30;;;;;;4939891;29;20043;-81
2023/07/13 06:21:49;;;;;;;9.40;3.20;;;18.30;74.00;;;;;;4938376;29;20024;-82
2023/07/13 06:24:15;;;;;;;5.50;2.38;;;18.30;74.10;;;;;;4939595;29;20107;-82
2023/07/13 06:26:40;;;;;;;9.85;3.03;;;18.20;74.30;;;;;;4941315;29;20032;-82
2023/07/13 06:29:06;;;;;;;7.57;2.53;;;18.30;74.40;;;;;;4958866;29;20035;-82
2023/07/13 06:31:32;;;;;;;8.52;2.85;;;18.30;74.20;;;;;;4951458;29;20127;-82
2023/07/13 06:33:57;;;;;;;7.47;2.85;;;18.30;74.30;;;;;;4921919;29;20039;-82
2023/07/13 06:36:23;;;;;;;6.32;2.40;;;18.30;74.30;;;;;;4939434;29;20078;-82
2023/07/13 06:38:49;;;;;;;8.70;2.60;;;18.40;73.80;;;;;;4938468;29;20442;-82
2023/07/13 06:41:14;;;;;;;8.93;2.63;;;18.50;73.50;;;;;;4947746;28;20039;-82
2023/07/13 06:43:40;;;;;;;8.18;2.60;;;18.50;73.40;;;;;;4958360;29;20023;-82
2023/07/13 06:46:06;;;;;;;7.35;2.90;;;18.60;73.70;;;;;;4958592;29;20045;-82
2023/07/13 06:48:32;;;;;;;5.90;2.65;;;18.50;73.90;;;;;;4950144;29;20024;-82
2023/07/13 06:50:58;;;;;;;7.22;2.00;;;18.60;73.80;;;;;;4938918;29;20020;-82
2023/07/13 06:53:24;;;;;;;8.43;2.60;;;18.70;73.90;;;;;;4921838;29;20036;-82
2023/07/13 06:55:51;;;;;;;6.75;2.47;;;18.70;73.70;;;;;;4935983;29;20067;-81
2023/07/13 06:58:18;;;;;;;9.05;2.42;;;18.80;73.30;;;;;;4930397;29;20031;-82
2023/07/13 07:00:44;;;;;;;10.48;2.95;;;18.80;73.30;;;;;;4920760;29;20080;-85
2023/07/13 07:03:09;;;;;;;6.00;2.20;;;18.80;73.20;;;;;;4914457;29;20071;-83
2023/07/13 07:05:35;;;;;;;5.07;2.30;;;18.80;73.00;;;;;;4934403;29;20455;-85
2023/07/13 07:08:01;;;;;;;6.18;2.50;;;18.80;73.40;;;;;;4909159;29;20392;-84
2023/07/13 07:10:29;;;;;;;11.48;3.03;;;18.80;73.50;;;;;;4933348;29;20049;-82
2023/07/13 07:12:54;;;;;;;8.63;2.40;;;18.80;73.00;;;;;;4935074;29;20039;-86
2023/07/13 07:15:20;;;;;;;5.95;2.17;;;18.80;73.10;;;;;;4938117;29;20103;-84
2023/07/13 07:17:46;;;;;;;7.38;2.70;;;18.90;72.70;;;;;;4937699;29;20043;-84
2023/07/13 07:20:12;;;;;;;5.45;2.45;;;19.00;72.50;;;;;;4918213;29;20455;-85
2023/07/13 07:22:38;;;;;;;7.65;2.58;;;19.00;72.50;;;;;;4919570;29;20104;-85
2023/07/13 07:25:04;;;;;;;7.53;2.78;;;19.00;72.40;;;;;;4908562;29;20032;-82
2023/07/13 07:27:30;;;;;;;10.50;2.80;;;19.00;72.30;;;;;;4926286;29;20483;-87
2023/07/13 07:29:57;;;;;;;9.75;2.38;;;19.10;72.30;;;;;;4926698;29;20059;-83
2023/07/13 07:32:23;;;;;;;10.02;2.40;;;19.20;72.20;;;;;;4910053;29;20146;-83
2023/07/13 07:34:49;;;;;;;8.48;2.53;;;19.20;72.10;;;;;;4902611;29;20056;-83
2023/07/13 07:37:14;;;;;;;8.27;2.33;;;19.20;71.90;;;;;;4929936;29;20510;-84
2023/07/13 07:39:40;;;;;;;7.28;2.63;;;19.30;71.70;;;;;;4953977;29;20043;-83
2023/07/13 07:42:06;;;;;;;10.68;2.72;;;19.30;71.70;;;;;;4943410;29;20162;-84
2023/07/13 07:44:32;;;;;;;6.97;2.50;;;19.40;71.50;;;;;;4928999;29;20021;-84
2023/07/13 07:46:58;;;;;;;7.15;2.60;;;19.40;71.70;;;;;;4937654;29;20031;-84
2023/07/13 07:49:24;;;;;;;7.68;3.10;;;19.50;71.00;;;;;;4935140;29;20030;-83
2023/07/13 07:51:50;;;;;;;11.02;2.60;;;19.70;71.10;;;;;;4920780;29;20032;-83
2023/07/13 07:54:16;;;;;;;5.88;2.13;;;19.80;70.60;;;;;;4935252;29;20032;-85
2023/07/13 07:56:42;;;;;;;9.30;2.17;;;19.80;70.70;;;;;;4936526;29;20058;-83
2023/07/13 07:59:07;;;;;;;7.45;2.50;;;19.80;70.20;;;;;;4934330;29;21217;-84
2023/07/13 08:01:33;;;;;;;8.40;2.50;;;19.80;70.50;;;;;;4918684;29;20031;-84
2023/07/13 08:03:59;;;;;;;6.90;2.28;;;20.00;70.10;;;;;;4935635;29;20594;-84
2023/07/13 08:06:24;;;;;;;6.78;2.13;;;20.10;69.50;;;;;;4935586;29;20026;-84
2023/07/13 08:08:50;;;;;;;8.65;2.58;;;20.30;69.10;;;;;;4919927;29;20477;-85
2023/07/13 08:11:16;;;;;;;6.25;2.30;;;20.30;68.70;;;;;;4937198;29;20024;-84
2023/07/13 08:13:42;;;;;;;5.53;2.00;;;20.60;67.90;;;;;;4936948;29;20023;-84
2023/07/13 08:16:08;;;;;;;6.05;2.28;;;20.70;67.50;;;;;;4919402;29;20027;-85
2023/07/13 08:18:34;;;;;;;5.32;2.05;;;21.00;66.50;;;;;;4919716;29;20455;-84
2023/07/13 08:21:04;;;;;;;6.10;2.40;;;21.20;65.40;;;;;;4936493;29;20083;-84
2023/07/13 08:23:32;;;;;;;9.32;2.10;;;21.40;65.10;;;;;;4936963;29;20035;-84
2023/07/13 08:25:58;;;;;;;6.57;2.88;;;21.70;64.50;;;;;;4937704;29;20019;-84
2023/07/13 08:28:24;;;;;;;5.65;2.03;;;21.70;64.70;;;;;;4921042;29;20028;-85
2023/07/13 08:30:50;;;;;;;7.80;2.33;;;21.80;63.40;;;;;;4940300;29;20052;-84
2023/07/13 08:33:18;;;;;;;5.30;1.80;;;22.20;62.40;;;;;;4938164;29;20461;-84
2023/07/13 08:35:46;;;;;;;5.18;1.60;;;22.40;62.00;;;;;;4944531;29;20454;-86
2023/07/13 08:38:12;;;;;;;5.22;1.77;;;24.40;57.50;;;;;;4917599;29;20712;-84
2023/07/13 08:40:39;;;;;;;5.85;1.80;;;24.20;56.00;;;;;;4918490;29;20032;-85
2023/07/13 08:43:04;;;;;;;4.40;1.80;;;25.80;52.90;;;;;;4918747;29;20036;-85
2023/07/13 08:45:44;;;;;;;4.65;1.58;;;27.30;49.20;;;;;;4943096;29;20094;-86
2023/07/13 08:48:24;;;;;;;4.32;1.75;;;28.90;45.00;;;;;;4939910;29;20111;-85
2023/07/13 08:50:57;;;;;;;3.38;1.58;;;30.00;42.20;;;;;;4956820;29;20023;-86
2023/07/13 08:53:26;;;;;;;5.07;1.40;;;31.20;39.20;;;;;;4920451;29;20458;-86
2023/07/13 08:55:58;;;;;;;4.00;1.38;;;30.10;39.40;;;;;;4937771;29;20020;-86
2023/07/13 08:58:28;;;;;;;;;;;28.90;41.30;;;;;;4937547;29;20035;-84
2023/07/13 09:01:13;;;;;;;6.43;1.75;;;27.70;43.80;;;;;;4940136;29;20001;-85
2023/07/13 09:04:09;;;;;;;5.07;1.67;;;28.00;44.00;;;;;;4956658;28;20082;-85
2023/07/13 09:06:45;;;;;;;4.65;1.60;;;29.20;42.00;;;;;;4934581;29;20036;-86
2023/07/13 09:09:21;;;;;;;4.43;1.80;;;29.90;39.30;;;;;;4912210;29;20027;-84
2023/07/13 09:11:50;;;;;;;2.83;1.42;;;30.20;38.40;;;;;;4926493;29;20028;-85
2023/07/13 09:14:47;;;;;;;2.63;1.20;;;30.00;39.00;;;;;;4923836;29;20059;-85
2023/07/13 09:17:17;;;;;;;4.97;1.40;;;29.70;39.80;;;;;;4956590;29;20498;-86
2023/07/13 09:19:46;;;;;;;4.60;1.40;;;29.40;39.30;;;;;;4920675;29;20032;-85
2023/07/13 09:22:16;;;;;;;6.20;1.63;;;29.60;39.80;;;;;;4920004;29;20032;-85
2023/07/13 09:25:05;;;;;;;5.78;1.40;;;29.60;38.80;;;;;;4921862;29;20091;-85
2023/07/13 09:27:39;;;;;;;4.05;1.73;;;29.30;37.60;;;;;;4905175;29;20021;-86
2023/07/13 09:30:14;;;;;;;5.68;1.65;;;29.80;37.00;;;;;;4921961;29;20039;-84
2023/07/13 09:32:44;;;;;;;3.70;1.40;;;29.90;37.10;;;;;;4935229;29;20634;-84
2023/07/13 09:35:16;;;;;;;4.30;1.40;;;29.90;37.50;;;;;;4940508;29;20170;-84
2023/07/13 09:37:45;;;;;;;4.80;1.35;;;29.10;39.60;;;;;;4939853;29;20031;-84
2023/07/13 09:40:22;;;;;;;9.90;2.45;;;28.40;39.00;;;;;;4923173;29;20024;-84
2023/07/13 09:42:49;;;;;;;3.25;1.60;;;28.00;39.90;;;;;;4931460;29;20036;-85
2023/07/13 09:45:27;;;;;;;13.38;2.00;;;29.70;37.00;;;;;;4921438;29;20036;-86
2023/07/13 09:48:08;;;;;;;5.63;1.20;;;30.80;35.00;;;;;;4936153;29;20035;-83
2023/07/13 09:50:34;;;;;;;8.50;2.08;;;30.00;36.20;;;;;;4939597;29;20020;-83
2023/07/13 09:53:01;;;;;;;2.90;1.25;;;29.10;36.90;;;;;;4938532;29;20036;-84
2023/07/13 09:55:39;;;;;;;5.45;1.30;;;28.20;37.80;;;;;;4922521;29;20031;-83
2023/07/13 09:58:12;;;;;;;5.70;1.42;;;27.70;39.00;;;;;;4940483;29;20032;-83
2023/07/13 10:00:40;;;;;;;5.22;1.83;;;27.30;40.10;;;;;;4939842;29;20043;-83
2023/07/13 10:03:24;;;;;;;6.22;1.63;;;27.30;39.90;;;;;;4939928;29;20087;-83
2023/07/13 10:05:52;;;;;;;3.20;1.38;;;27.30;40.40;;;;;;4940201;29;20034;-83
2023/07/13 10:08:29;;;;;;;4.63;1.67;;;27.00;39.70;;;;;;4931114;29;20024;-83
2023/07/13 10:11:02;;;;;;;5.20;1.40;;;26.80;40.60;;;;;;4939437;29;20035;-83
2023/07/13 10:13:42;;;;;;;3.05;1.30;;;26.50;41.50;;;;;;4939264;29;20118;-83
2023/07/13 10:16:09;;;;;;;4.22;1.55;;;26.30;41.50;;;;;;4938821;29;20036;-83
2023/07/13 10:18:43;;;;;;;6.55;1.83;;;26.30;41.10;;;;;;4939892;29;20031;-83
2023/07/13 10:21:16;;;;;;;3.25;1.40;;;26.70;41.70;;;;;;4922494;29;20518;-83
2023/07/13 10:23:42;;;;;;;3.97;1.30;;;27.10;40.50;;;;;;4938440;29;20406;-83
2023/07/13 10:26:23;;;;;;;7.25;1.80;;;27.30;39.20;;;;;;4939618;29;20814;-83
2023/07/13 10:28:56;;;;;;;5.47;1.50;;;27.10;40.10;;;;;;4937605;29;20115;-83
2023/07/13 10:31:23;;;;;;;3.20;1.30;;;27.20;40.00;;;;;;4917700;29;20048;-83
2023/07/13 10:33:49;;;;;;;3.50;1.38;;;27.00;40.00;;;;;;4920394;29;20032;-83
2023/07/13 10:36:43;;;;;;;4.25;1.65;;;27.00;38.80;;;;;;4931551;29;20494;-82
2023/07/13 10:39:22;;;;;;;4.13;1.38;;;26.90;38.20;;;;;;4922403;29;20027;-83
2023/07/13 10:42:01;;;;;;;3.97;1.70;;;27.10;38.50;;;;;;4940709;29;20114;-82
2023/07/13 10:44:30;;;;;;;4.78;1.50;;;27.30;39.40;;;;;;4958792;29;20027;-84
2023/07/13 10:47:02;;;;;;;3.53;1.20;;;27.30;38.30;;;;;;4958277;29;20027;-83
2023/07/13 10:49:30;;;;;;;4.57;1.60;;;27.30;37.60;;;;;;4955736;29;20031;-83
2023/07/13 10:51:56;;;;;;;5.85;1.67;;;27.20;38.00;;;;;;4939156;29;20778;-83
2023/07/13 10:54:31;;;;;;;4.50;2.03;;;27.30;37.60;;;;;;4938640;29;20035;-83
2023/07/13 10:57:20;;;;;;;3.35;1.40;;;27.30;38.40;;;;;;4922204;29;20049;-83
2023/07/13 11:00:09;;;;;;;3.67;1.60;;;27.20;38.60;;;;;;4925932;29;20057;-83
2023/07/13 11:02:35;;;;;;;4.32;1.40;;;27.20;38.90;;;;;;4921988;29;20502;-84
2023/07/13 11:05:28;;;;;;;6.35;1.50;;;27.10;38.50;;;;;;4909932;29;20031;-83
2023/07/13 11:08:36;;;;;;;5.95;1.65;;;27.00;39.00;;;;;;4930112;29;20028;-83
2023/07/13 11:11:02;;;;;;;5.03;1.60;;;27.00;39.50;;;;;;4908086;29;20029;-83
2023/07/13 11:13:55;;;;;;;3.90;1.40;;;26.80;38.20;;;;;;4949259;29;20106;-84
2023/07/13 11:16:23;;;;;;;;;;;26.90;39.70;;;;;;4956887;29;20054;-78
2023/07/13 11:18:51;;;;;;;3.05;1.42;;;26.90;38.40;;;;;;4940092;29;19911;-84
2023/07/13 11:21:19;;;;;;;4.85;1.52;;;26.90;38.10;;;;;;4935950;29;20040;-82
2023/07/13 11:23:53;;;;;;;4.07;1.58;;;27.10;38.00;;;;;;4931143;29;20426;-85
2023/07/13 11:26:41;;;;;;;4.07;1.40;;;27.20;38.30;;;;;;4937430;29;20019;-88
2023/07/13 11:29:32;;;;;;;5.22;1.38;;;27.30;37.70;;;;;;4925304;29;20088;-84
2023/07/13 11:32:19;;;;;;;3.33;1.27;;;27.40;38.70;;;;;;4927574;29;20479;-86
2023/07/13 11:34:45;;;;;;;3.17;1.13;;;27.50;37.60;;;;;;4934832;29;20410;-85
2023/07/13 11:37:15;;;;;;;4.90;1.38;;;27.30;37.70;;;;;;4917600;29;20032;-84
2023/07/13 11:39:44;;;;;;;5.82;1.55;;;27.10;38.30;;;;;;4902278;29;20095;-82
2023/07/13 11:42:13;;;;;;;3.22;1.20;;;26.80;38.50;;;;;;4920926;29;20047;-83
2023/07/13 11:44:47;;;;;;;2.50;1.30;;;26.80;38.60;;;;;;4934859;29;20042;-84
2023/07/13 11:47:22;;;;;;;3.35;1.30;;;26.80;38.10;;;;;;4938365;29;20039;-82
2023/07/13 11:49:56;;;;;;;3.33;1.40;;;26.80;37.90;;;;;;4936662;29;20038;-91
2023/07/13 11:52:37;;;;;;;4.68;1.60;;;26.60;39.30;;;;;;4936281;29;20147;-84
2023/07/13 11:55:15;;;;;;;3.67;1.30;;;26.60;38.60;;;;;;4938482;29;20040;-88
2023/07/13 11:57:57;;;;;;;4.00;1.45;;;26.50;39.00;;;;;;4936272;29;20032;-86
2023/07/13 12:00:27;;;;;;;3.63;1.23;;;26.20;39.40;;;;;;4915633;29;20070;-86
2023/07/13 12:02:56;;;;;;;3.58;1.33;;;26.00;40.20;;;;;;4935912;29;20082;-87
2023/07/13 12:05:21;;;;;;;5.93;1.50;;;25.80;40.20;;;;;;4936091;29;20060;-87
2023/07/13 12:07:49;;;;;;;2.95;1.30;;;25.80;40.30;;;;;;4936059;29;20036;-86
2023/07/13 12:10:22;;;;;;;3.13;1.10;;;25.90;41.10;;;;;;4921076;29;20032;-87
2023/07/13 12:13:00;;;;;;;4.30;1.55;;;26.10;40.80;;;;;;4919746;29;20035;-86
2023/07/13 12:15:34;;;;;;;4.10;1.30;;;26.30;40.60;;;;;;4927447;29;20123;-88
2023/07/13 12:18:00;;;;;;;4.25;1.42;;;26.70;40.40;;;;;;4905642;29;20529;-87
2023/07/13 12:20:29;;;;;;;5.07;1.45;;;26.90;39.60;;;;;;4936794;29;20028;-88
2023/07/13 12:22:54;;;;;;;3.67;1.27;;;27.10;40.20;;;;;;4933110;29;20102;-86
2023/07/13 12:25:22;;;;;;;4.15;1.48;;;27.00;40.30;;;;;;4932701;29;20115;-89
2023/07/13 12:27:49;;;;;;;3.55;1.33;;;27.00;40.70;;;;;;4916226;29;20032;-86
2023/07/13 12:30:37;;;;;;;3.63;1.48;;;26.90;40.40;;;;;;4929515;29;20130;-91
2023/07/13 12:33:10;;;;;;;2.50;1.00;;;26.80;40.90;;;;;;4934831;29;20123;-86
2023/07/13 12:35:46;;;;;;;4.55;1.33;;;26.80;40.50;;;;;;4932090;29;20040;-81
2023/07/13 12:38:13;;;;;;;3.75;1.30;;;26.90;40.20;;;;;;4934558;29;20026;-86
2023/07/13 12:40:40;;;;;;;5.43;1.60;;;27.00;40.70;;;;;;4931608;29;20028;-88
2023/07/13 12:43:14;;;;;;;3.63;1.30;;;26.90;40.30;;;;;;4926805;29;20028;-87
2023/07/13 12:45:57;;;;;;;3.95;1.38;;;26.90;40.20;;;;;;4935694;29;20118;-85
2023/07/13 12:48:23;;;;;;;3.75;1.20;;;26.90;40.00;;;;;;4919364;29;20119;-87
2023/07/13 12:50:50;;;;;;;4.10;1.60;;;26.90;40.30;;;;;;4937539;29;20498;-87
2023/07/13 12:53:28;;;;;;;5.70;1.45;;;27.00;39.40;;;;;;4940671;29;20032;-87
2023/07/13 12:55:59;;;;;;;4.38;1.40;;;27.10;40.50;;;;;;4922941;29;20040;-86
2023/07/13 12:58:32;;;;;;;4.95;1.45;;;27.30;40.30;;;;;;4944604;29;20609;-86
2023/07/13 13:01:01;;;;;;;2.92;1.50;;;27.30;40.00;;;;;;4937395;29;20036;-88
2023/07/13 13:03:33;;;;;;;5.13;1.40;;;27.30;40.50;;;;;;4923574;29;20485;-87
2023/07/13 13:06:23;;;;;;;3.53;1.38;;;27.10;39.60;;;;;;4930342;29;20032;-86
2023/07/13 13:08:52;;;;;;;3.70;1.33;;;27.10;40.50;;;;;;4932631;29;20036;-86
2023/07/13 13:11:19;;;;;;;3.70;1.50;;;27.00;40.40;;;;;;4923288;29;20114;-86
2023/07/13 13:13:48;;;;;;;6.05;1.73;;;27.10;40.30;;;;;;4932971;29;20028;-86
2023/07/13 13:16:20;;;;;;;3.20;1.50;;;27.20;40.30;;;;;;4939192;29;20059;-86
2023/07/13 13:18:45;;;;;;;7.53;1.80;;;27.30;40.10;;;;;;4934075;29;20032;-84
2023/07/13 13:21:11;;;;;;;3.97;1.35;;;27.40;40.20;;;;;;4932853;29;20031;-85
2023/07/13 13:23:37;;;;;;;4.85;1.48;;;27.20;40.90;;;;;;4938029;29;20103;-85
2023/07/13 13:26:07;;;;;;;4.60;1.88;;;27.30;40.50;;;;;;4922576;29;20028;-85
2023/07/13 13:28:33;;;;;;;7.32;1.80;;;27.60;40.70;;;;;;4919059;29;20027;-85
2023/07/13 13:30:59;;;;;;;6.07;1.70;;;27.60;40.50;;;;;;4918966;29;20099;-86
2023/07/13 13:33:24;;;;;;;3.70;1.38;;;27.50;40.60;;;;;;4920483;29;20530;-85
2023/07/13 13:35:50;;;;;;;3.55;1.40;;;27.50;41.00;;;;;;4937824;29;20110;-84
2023/07/13 13:38:17;;;;;;;5.10;1.70;;;27.40;40.90;;;;;;4940722;29;20031;-86
2023/07/13 13:40:44;;;;;;;7.25;2.00;;;27.20;41.00;;;;;;4936845;29;20406;-86
2023/07/13 13:43:25;;;;;;;5.10;1.80;;;27.20;41.10;;;;;;4923576;29;20167;-83
2023/07/13 13:45:52;;;;;;;4.72;1.60;;;27.20;41.70;;;;;;4938561;29;20023;-88
2023/07/13 13:48:20;;;;;;;3.38;1.60;;;27.10;40.70;;;;;;4936361;29;20027;-85
2023/07/13 13:50:47;;;;;;;4.97;1.50;;;27.00;40.50;;;;;;4916810;29;20036;-88
2023/07/13 13:53:13;;;;;;;5.40;1.90;;;27.00;40.80;;;;;;4915272;29;20028;-86
2023/07/13 13:55:41;;;;;;;4.15;1.58;;;26.90;41.90;;;;;;4903316;29;20108;-86
2023/07/13 13:58:07;;;;;;;5.63;1.75;;;27.10;41.90;;;;;;4921229;29;20123;-86
2023/07/13 14:00:33;;;;;;;5.03;1.67;;;26.90;41.30;;;;;;4938470;29;20529;-87
2023/07/13 14:02:59;;;;;;;4.60;1.70;;;26.90;42.10;;;;;;4937112;29;20067;-87
2023/07/13 14:05:25;;;;;;;4.47;1.73;;;26.90;41.50;;;;;;4920905;29;20035;-85
2023/07/13 14:07:52;;;;;;;5.85;1.88;;;27.00;41.50;;;;;;4938034;29;20042;-86
2023/07/13 14:10:19;;;;;;;7.50;1.50;;;27.00;41.40;;;;;;4945147;29;20031;-87
2023/07/13 14:12:57;;;;;;;4.47;2.00;;;26.90;41.10;;;;;;4938774;29;20031;-87
2023/07/13 14:15:26;;;;;;;4.00;1.70;;;26.80;41.50;;;;;;4922107;29;20119;-86
2023/07/13 14:17:52;;;;;;;6.45;1.85;;;26.80;41.90;;;;;;4923186;29;20387;-85
2023/07/13 14:20:20;;;;;;;7.20;1.98;;;26.60;42.10;;;;;;4938910;29;20058;-86
2023/07/13 14:22:46;;;;;;;5.22;1.50;;;26.60;42.10;;;;;;4939316;29;20032;-86
2023/07/13 14:25:13;;;;;;;5.65;1.73;;;26.60;42.50;;;;;;4922679;29;20032;-86
2023/07/13 14:27:40;;;;;;;4.93;1.67;;;26.60;42.00;;;;;;4933028;29;20039;-85
2023/07/13 14:30:18;;;;;;;4.03;1.58;;;26.70;42.30;;;;;;4903157;29;20037;-82
2023/07/13 14:32:44;;;;;;;5.55;1.63;;;27.00;42.60;;;;;;4938250;29;20418;-85
2023/07/13 14:35:20;;;;;;;4.53;1.67;;;27.00;41.70;;;;;;4926099;29;20173;-85
2023/07/13 14:37:46;;;;;;;4.30;1.65;;;27.10;41.70;;;;;;4938671;29;20038;-85
2023/07/13 14:40:13;;;;;;;3.97;1.70;;;27.10;41.40;;;;;;4935539;29;20031;-85
2023/07/13 14:42:39;;;;;;;4.20;1.70;;;27.00;41.40;;;;;;4958714;29;20462;-85
2023/07/13 14:45:05;;;;;;;4.63;1.55;;;27.00;41.70;;;;;;4952787;29;20060;-85
2023/07/13 14:47:31;;;;;;;5.47;1.63;;;26.90;40.70;;;;;;4939349;29;20483;-85
2023/07/13 14:49:57;;;;;;;3.35;1.55;;;26.90;41.60;;;;;;4938632;29;20130;-84
2023/07/13 14:52:25;;;;;;;3.08;1.50;;;27.00;41.70;;;;;;4939337;29;20027;-85
2023/07/13 14:54:50;;;;;;;4.75;1.77;;;27.20;40.90;;;;;;4938507;29;20042;-85
2023/07/13 14:57:20;;;;;;;5.03;1.77;;;27.10;41.50;;;;;;4957796;29;20035;-85
2023/07/13 14:59:47;;;;;;;4.88;1.70;;;26.90;41.10;;;;;;4941266;29;20054;-85
2023/07/13 15:02:22;;;;;;;6.25;1.88;;;26.80;41.40;;;;;;4938384;29;20034;-85
2023/07/13 15:04:47;;;;;;;4.20;1.48;;;26.80;42.40;;;;;;4921630;29;20027;-84
2023/07/13 15:07:15;;;;;;;4.57;1.50;;;26.90;42.30;;;;;;4921350;29;20027;-85
2023/07/13 15:09:41;;;;;;;4.10;1.80;;;27.00;42.30;;;;;;4924342;29;20020;-86
2023/07/13 15:12:07;;;;;;;5.20;1.77;;;27.00;42.40;;;;;;4936908;29;20482;-85
2023/07/13 15:14:32;;;;;;;5.65;1.73;;;27.00;42.10;;;;;;4938134;29;20074;-85
2023/07/13 15:16:59;;;;;;;4.95;1.80;;;27.10;41.90;;;;;;4938597;29;20035;-85
2023/07/13 15:19:26;;;;;;;4.57;1.45;;;27.00;41.20;;;;;;4938881;29;20494;-86
2023/07/13 15:21:52;;;;;;;4.85;1.77;;;26.80;42.10;;;;;;4921492;29;20036;-85
2023/07/13 15:24:18;;;;;;;5.25;1.90;;;26.70;42.80;;;;;;4936323;29;20031;-85
2023/07/13 15:26:45;;;;;;;6.18;1.60;;;26.70;43.00;;;;;;4927998;29;20028;-86
2023/07/13 15:29:12;;;;;;;5.03;1.90;;;26.80;43.10;;;;;;4921640;29;20038;-85
2023/07/13 15:31:39;;;;;;;5.72;1.88;;;26.90;42.30;;;;;;4920665;29;20047;-84
2023/07/13 15:34:14;;;;;;;4.25;1.70;;;27.10;41.30;;;;;;4935642;29;20110;-85
2023/07/13 15:36:40;;;;;;;4.68;1.85;;;27.10;41.50;;;;;;4937921;29;20023;-86
2023/07/13 15:39:06;;;;;;;5.05;1.80;;;27.10;42.30;;;;;;4938555;29;20029;-85
2023/07/13 15:41:32;;;;;;;4.00;1.77;;;26.90;41.60;;;;;;4939968;29;20031;-85
2023/07/13 15:43:59;;;;;;;5.45;1.60;;;26.90;42.60;;;;;;4940450;29;20454;-87
2023/07/13 15:46:26;;;;;;;4.78;1.80;;;26.70;42.10;;;;;;4927497;29;20028;-86
2023/07/13 15:48:53;;;;;;;5.88;1.55;;;26.50;42.30;;;;;;4936976;29;20040;-84
2023/07/13 15:51:29;;;;;;;5.72;1.85;;;26.30;43.20;;;;;;4937437;29;20479;-86
2023/07/13 15:53:59;;;;;;;5.00;1.80;;;26.30;43.40;;;;;;4937220;29;20126;-85
2023/07/13 15:56:27;;;;;;;4.72;1.60;;;26.30;43.30;;;;;;4934946;29;20579;-85
2023/07/13 15:58:55;;;;;;;6.70;1.77;;;26.20;42.80;;;;;;4918267;29;20819;-84
2023/07/13 16:01:22;;;;;;;9.98;2.00;;;26.30;42.60;;;;;;4937056;29;20557;-84
2023/07/13 16:03:48;;;;;;;4.93;1.65;;;26.30;43.10;;;;;;4935606;29;20127;-86
2023/07/13 16:06:17;;;;;;;5.15;1.60;;;26.40;42.20;;;;;;4934742;29;20343;-85
2023/07/13 16:08:44;;;;;;;4.00;1.60;;;26.60;42.80;;;;;;4935858;29;20416;-85
2023/07/13 16:11:34;;;;;;;5.88;1.48;;;26.60;42.80;;;;;;4938579;29;20491;-85
2023/07/13 16:14:00;;;;;;;4.40;1.70;;;26.60;43.40;;;;;;4937394;29;20110;-85
2023/07/13 16:16:28;;;;;;;5.10;1.48;;;26.70;43.00;;;;;;4941526;29;20059;-85
2023/07/13 16:18:57;;;;;;;3.92;1.63;;;26.80;42.70;;;;;;4938713;29;20028;-85
2023/07/13 16:21:25;;;;;;;5.75;1.80;;;26.80;43.20;;;;;;4937821;29;20383;-87
2023/07/13 16:23:51;;;;;;;3.80;1.80;;;26.60;42.70;;;;;;4924221;29;20858;-85
2023/07/13 16:26:41;;;;;;;4.53;1.58;;;26.50;42.80;;;;;;4923964;29;20115;-84
2023/07/13 16:29:33;;;;;;;4.07;1.88;;;26.40;43.30;;;;;;4941987;29;20024;-84
2023/07/13 16:32:04;;;;;;;4.72;1.60;;;26.10;43.60;;;;;;4936873;29;20127;-83
2023/07/13 16:34:32;;;;;;;4.45;1.60;;;25.80;43.40;;;;;;4939056;29;20036;-85
2023/07/13 16:37:00;;;;;;;4.90;2.08;;;25.80;44.20;;;;;;4940005;29;20106;-84
2023/07/13 16:39:27;;;;;;;5.28;1.90;;;25.70;44.40;;;;;;4921552;29;20032;-84
2023/07/13 16:41:54;;;;;;;5.53;1.70;;;25.70;44.70;;;;;;4923213;29;20115;-83
2023/07/13 16:44:22;;;;;;;6.72;2.10;;;25.80;44.60;;;;;;4935776;29;20050;-82
2023/07/13 16:46:55;;;;;;;3.90;1.67;;;25.70;44.80;;;;;;4941427;29;20039;-80
2023/07/13 16:49:28;;;;;;;4.82;1.90;;;25.80;44.50;;;;;;4922869;29;20048;-83
2023/07/13 16:52:01;;;;;;;;;;;25.60;44.00;;;;;;4923110;29;20031;-85
2023/07/13 16:54:30;;;;;;;5.80;1.73;;;25.50;44.40;;;;;;4921174;29;19925;-84
2023/07/13 16:56:59;;;;;;;7.35;1.98;;;25.60;45.50;;;;;;4923341;29;20039;-82
2023/07/13 16:59:29;;;;;;;4.80;1.63;;;25.60;44.60;;;;;;4938697;29;20058;-81
2023/07/13 17:01:57;;;;;;;6.13;1.80;;;25.50;44.70;;;;;;4923527;29;20024;-84
2023/07/13 17:04:24;;;;;;;4.72;1.92;;;25.60;44.40;;;;;;4952226;29;20030;-91
2023/07/13 17:06:53;;;;;;;6.32;1.80;;;25.60;43.90;;;;;;4921921;29;20020;-80
2023/07/13 17:09:19;;;;;;;3.83;1.67;;;25.50;44.70;;;;;;4923271;29;20082;-86
2023/07/13 17:11:45;;;;;;;4.85;1.77;;;25.50;44.80;;;;;;4939447;29;20486;-89
2023/07/13 17:14:19;;;;;;;4.90;2.10;;;25.30;44.80;;;;;;4923910;29;20050;-87
2023/07/13 17:16:49;;;;;;;5.47;2.00;;;25.30;44.70;;;;;;4940510;29;20024;-80
2023/07/13 17:19:16;;;;;;;4.90;1.40;;;25.20;44.70;;;;;;4937953;29;20080;-82
2023/07/13 17:21:47;;;;;;;6.00;1.75;;;25.20;45.20;;;;;;4937519;29;20107;-84
2023/07/13 17:24:24;;;;;;;5.40;1.85;;;25.30;45.00;;;;;;4922655;29;20020;-86
2023/07/13 17:26:50;;;;;;;5.97;1.83;;;25.30;44.50;;;;;;4935945;29;20031;-82
2023/07/13 17:29:19;;;;;;;4.50;1.67;;;25.30;45.10;;;;;;4939685;29;20028;-87
2023/07/13 17:31:45;;;;;;;4.80;1.77;;;25.40;45.80;;;;;;4922483;29;20051;-80